Time;durP1;ratioP1;P1;durP2;ratioP2;P2;SDS_P1;SDS_P2;PMS_P1;PMS_P2;Temp;Humidity;BMP_temperature;BMP_pressure;BME280_temperature;BME280_humidity;BME280_pressure;Samples;Min_cycle;Max_cycle;Signal;HPM_P1;HPM_P2
2022/09/09 00:02:02;;;;;;;6.87;3.50;;;;;;;;;;5056025;28;20223;-77
2022/09/09 00:04:32;;;;;;;3.37;2.97;;;;;;;;;;5055014;28;20285;-76
2022/09/09 00:07:04;;;;;;;4.13;3.17;;;;;;;;;;5055689;28;20284;-76
2022/09/09 00:09:37;;;;;;;4.27;2.90;;;;;;;;;;5055703;28;20215;-77
2022/09/09 00:12:08;;;;;;;6.53;3.20;;;;;;;;;;5055676;28;20258;-77
2022/09/09 00:14:40;;;;;;;5.53;3.43;;;;;;;;;;5054358;28;20199;-77
2022/09/09 00:17:11;;;;;;;6.40;3.20;;;;;;;;;;5053196;28;20242;-76
2022/09/09 00:19:44;;;;;;;7.27;3.03;;;;;;;;;;5056039;28;20278;-77
2022/09/09 00:22:17;;;;;;;5.77;3.13;;;;;;;;;;5048172;28;20265;-77
2022/09/09 00:24:47;;;;;;;4.03;2.97;;;;;;;;;;5055310;28;20268;-76
2022/09/09 00:27:20;;;;;;;5.87;3.40;;;;;;;;;;5055274;28;20299;-77
2022/09/09 00:29:54;;;;;;;5.90;3.77;;;;;;;;;;5054850;28;20609;-77
2022/09/09 00:32:23;;;;;;;6.60;3.37;;;;;;;;;;5055177;28;20280;-77
2022/09/09 00:34:54;;;;;;;3.93;3.20;;;;;;;;;;5054618;28;20635;-76
2022/09/09 00:37:25;;;;;;;4.33;3.20;;;;;;;;;;5043370;28;20731;-77
2022/09/09 00:39:56;;;;;;;5.77;3.30;;;;;;;;;;5054416;28;20257;-77
2022/09/09 00:42:26;;;;;;;4.60;2.83;;;;;;;;;;5054081;28;20257;-77
2022/09/09 00:44:58;;;;;;;6.43;3.03;;;;;;;;;;5054253;28;20234;-76
2022/09/09 00:47:44;;;;;;;6.57;3.17;;;;;;;;;;5047464;28;20223;-77
2022/09/09 00:50:17;;;;;;;4.17;2.90;;;;;;;;;;5048092;28;20249;-76
2022/09/09 00:52:51;;;;;;;4.03;2.60;;;;;;;;;;5053965;28;20247;-74
2022/09/09 00:55:22;;;;;;;5.57;2.80;;;;;;;;;;5040435;28;20290;-76
2022/09/09 00:57:53;;;;;;;3.23;2.70;;;;;;;;;;5053846;28;20298;-77
2022/09/09 01:00:41;;;;;;;6.43;2.73;;;;;;;;;;5049823;28;20294;-77
2022/09/09 01:03:35;;;;;;;7.17;2.70;;;;;;;;;;5035212;28;20239;-76
2022/09/09 01:06:17;;;;;;;5.83;2.37;;;;;;;;;;5048438;28;20243;-77
2022/09/09 01:09:11;;;;;;;4.07;2.30;;;;;;;;;;5051624;28;20199;-76
2022/09/09 01:11:50;;;;;;;5.60;2.70;;;;;;;;;;5044097;28;20326;-76
2022/09/09 01:14:30;;;;;;;4.23;2.40;;;;;;;;;;5034898;28;20928;-77
2022/09/09 01:17:17;;;;;;;5.70;2.50;;;;;;;;;;5043754;28;20620;-77
2022/09/09 01:19:57;;;;;;;3.97;2.70;;;;;;;;;;5046024;28;20657;-77
2022/09/09 01:22:42;;;;;;;4.67;2.93;;;;;;;;;;5052033;28;20231;-76
2022/09/09 01:25:29;;;;;;;3.13;2.60;;;;;;;;;;5034506;28;20647;-77
2022/09/09 01:28:07;;;;;;;3.53;2.57;;;;;;;;;;5034951;28;20211;-75
2022/09/09 01:30:46;;;;;;;2.53;2.33;;;;;;;;;;5041051;28;20318;-76
2022/09/09 01:33:17;;;;;;;5.43;2.50;;;;;;;;;;5054382;28;20345;-77
2022/09/09 01:36:00;;;;;;;2.60;2.33;;;;;;;;;;5040894;28;20207;-77
2022/09/09 01:38:40;;;;;;;4.37;2.40;;;;;;;;;;5041930;28;20211;-77
2022/09/09 01:41:10;;;;;;;3.70;2.40;;;;;;;;;;5054287;28;20552;-76
2022/09/09 01:43:51;;;;;;;5.23;2.53;;;;;;;;;;5047183;28;20207;-77
2022/09/09 01:46:31;;;;;;;5.43;2.50;;;;;;;;;;5050584;28;20199;-76
2022/09/09 01:49:01;;;;;;;3.30;2.53;;;;;;;;;;5039472;28;20203;-76
2022/09/09 01:51:43;;;;;;;3.63;2.30;;;;;;;;;;5053426;28;20258;-76
2022/09/09 01:54:24;;;;;;;2.73;2.20;;;;;;;;;;5053839;28;20191;-77
2022/09/09 01:57:04;;;;;;;5.63;2.30;;;;;;;;;;5053750;28;20266;-77
2022/09/09 01:59:52;;;;;;;7.97;2.50;;;;;;;;;;5053684;28;20227;-76
2022/09/09 02:02:29;;;;;;;4.37;2.17;;;;;;;;;;5053336;28;20691;-76
2022/09/09 02:05:09;;;;;;;3.63;2.07;;;;;;;;;;5046033;28;20202;-76
2022/09/09 02:07:49;;;;;;;4.07;2.23;;;;;;;;;;5053320;28;20209;-76
2022/09/09 02:10:29;;;;;;;5.23;2.30;;;;;;;;;;5053566;28;20686;-77
2022/09/09 02:13:13;;;;;;;3.63;2.23;;;;;;;;;;5042208;28;20219;-77
2022/09/09 02:15:46;;;;;;;5.93;2.60;;;;;;;;;;5034040;28;20207;-77
2022/09/09 02:18:28;;;;;;;4.20;2.37;;;;;;;;;;5051918;28;20226;-76
2022/09/09 02:20:58;;;;;;;3.70;2.00;;;;;;;;;;5041349;28;20233;-76
2022/09/09 02:23:39;;;;;;;2.87;2.07;;;;;;;;;;5053045;28;20724;-77
2022/09/09 02:26:10;;;;;;;5.73;2.23;;;;;;;;;;5053919;28;20568;-77
2022/09/09 02:28:50;;;;;;;3.53;2.17;;;;;;;;;;5053241;28;20203;-77
2022/09/09 02:31:32;;;;;;;3.20;1.97;;;;;;;;;;5052929;28;20219;-76
2022/09/09 02:34:13;;;;;;;4.23;2.23;;;;;;;;;;5047084;28;20203;-76
2022/09/09 02:36:56;;;;;;;3.60;1.97;;;;;;;;;;5052855;28;20207;-77
2022/09/09 02:39:35;;;;;;;3.13;2.30;;;;;;;;;;5052963;28;20211;-76
2022/09/09 02:42:15;;;;;;;4.00;2.17;;;;;;;;;;5049714;28;20251;-77
2022/09/09 02:44:53;;;;;;;3.93;2.10;;;;;;;;;;5034044;28;20188;-76
2022/09/09 02:47:28;;;;;;;4.23;2.10;;;;;;;;;;5045172;28;20302;-76
2022/09/09 02:50:04;;;;;;;6.33;2.37;;;;;;;;;;5041655;28;20195;-76
2022/09/09 02:52:49;;;;;;;7.17;2.60;;;;;;;;;;5048741;28;20199;-77
2022/09/09 02:55:38;;;;;;;4.17;2.43;;;;;;;;;;5053037;28;20288;-76
2022/09/09 02:58:19;;;;;;;3.53;2.57;;;;;;;;;;5052842;28;20297;-76
2022/09/09 03:00:49;;;;;;;4.80;2.40;;;;;;;;;;5046397;28;20268;-76
2022/09/09 03:03:30;;;;;;;2.93;2.50;;;;;;;;;;5052174;28;20282;-75
2022/09/09 03:06:11;;;;;;;6.00;2.23;;;;;;;;;;5056186;28;20203;-76
2022/09/09 03:08:52;;;;;;;5.47;2.77;;;;;;;;;;5056696;28;20253;-76
2022/09/09 03:11:25;;;;;;;5.93;2.40;;;;;;;;;;5056038;28;20284;-77
2022/09/09 03:13:57;;;;;;;4.07;2.33;;;;;;;;;;5055185;28;20678;-76
2022/09/09 03:16:27;;;;;;;4.80;2.53;;;;;;;;;;5055359;28;20206;-75
2022/09/09 03:19:07;;;;;;;3.20;2.47;;;;;;;;;;5048073;28;20227;-76
2022/09/09 03:21:40;;;;;;;3.57;2.50;;;;;;;;;;5053410;28;20628;-77
2022/09/09 03:24:18;;;;;;;3.37;2.43;;;;;;;;;;5039412;28;20242;-76
2022/09/09 03:26:57;;;;;;;4.03;2.33;;;;;;;;;;5043776;28;20211;-77
2022/09/09 03:29:32;;;;;;;4.53;2.50;;;;;;;;;;5055886;28;20210;-76
2022/09/09 03:32:04;;;;;;;4.83;2.90;;;;;;;;;;5052913;28;20234;-77
2022/09/09 03:34:49;;;;;;;5.33;3.20;;;;;;;;;;5055117;28;20290;-77
2022/09/09 03:37:20;;;;;;;6.33;2.90;;;;;;;;;;5055500;28;20668;-76
2022/09/09 03:39:59;;;;;;;3.77;3.27;;;;;;;;;;5055623;28;20310;-76
2022/09/09 03:42:41;;;;;;;5.57;3.20;;;;;;;;;;5039967;28;20204;-76
2022/09/09 03:45:11;;;;;;;5.57;3.10;;;;;;;;;;5047286;28;20293;-76
2022/09/09 03:47:47;;;;;;;5.30;3.33;;;;;;;;;;5042197;28;20239;-76
2022/09/09 03:50:27;;;;;;;3.17;2.43;;;;;;;;;;5053187;28;20598;-77
2022/09/09 03:53:11;;;;;;;3.83;2.43;;;;;;;;;;5053101;28;20290;-77
2022/09/09 03:55:47;;;;;;;4.10;2.50;;;;;;;;;;5052384;28;20274;-77
2022/09/09 03:58:23;;;;;;;3.93;2.20;;;;;;;;;;5041657;28;20215;-76
2022/09/09 04:01:09;;;;;;;4.93;2.73;;;;;;;;;;5053873;28;20226;-76
2022/09/09 04:03:50;;;;;;;4.27;2.40;;;;;;;;;;5055784;28;20202;-77
2022/09/09 04:06:36;;;;;;;6.43;2.40;;;;;;;;;;5055124;28;20194;-76
2022/09/09 04:09:13;;;;;;;4.37;2.50;;;;;;;;;;5053320;28;20245;-75
2022/09/09 04:11:43;;;;;;;6.13;2.57;;;;;;;;;;5048199;28;20232;-76
2022/09/09 04:14:16;;;;;;;4.17;2.37;;;;;;;;;;5052227;28;20207;-77
2022/09/09 04:16:58;;;;;;;5.57;2.27;;;;;;;;;;5042418;28;20548;-76
2022/09/09 04:19:31;;;;;;;4.77;2.10;;;;;;;;;;5037601;28;20241;-76
2022/09/09 04:22:09;;;;;;;5.50;2.10;;;;;;;;;;5045281;28;20307;-76
2022/09/09 04:24:49;;;;;;;3.63;2.30;;;;;;;;;;5047854;28;20215;-77
2022/09/09 04:27:21;;;;;;;4.70;2.40;;;;;;;;;;5053140;28;20226;-76
2022/09/09 04:29:51;;;;;;;3.60;2.30;;;;;;;;;;5038368;28;20250;-76
2022/09/09 04:32:27;;;;;;;6.17;2.50;;;;;;;;;;5042427;28;20233;-75
2022/09/09 04:34:59;;;;;;;3.93;2.30;;;;;;;;;;5051427;28;20195;-76
2022/09/09 04:37:42;;;;;;;3.83;2.27;;;;;;;;;;5048824;28;20597;-77
2022/09/09 04:40:16;;;;;;;3.43;2.33;;;;;;;;;;5054516;28;20298;-76
2022/09/09 04:42:55;;;;;;;5.27;2.50;;;;;;;;;;5050661;28;20199;-76
2022/09/09 04:45:28;;;;;;;6.20;2.67;;;;;;;;;;5039420;28;20208;-76
2022/09/09 04:47:57;;;;;;;3.70;2.53;;;;;;;;;;5052223;28;20203;-76
2022/09/09 04:50:28;;;;;;;5.60;2.60;;;;;;;;;;5046982;28;20215;-76
2022/09/09 04:53:09;;;;;;;3.73;2.37;;;;;;;;;;5054387;28;20589;-76
2022/09/09 04:55:49;;;;;;;3.93;2.43;;;;;;;;;;5053291;28;20244;-76
2022/09/09 04:58:32;;;;;;;4.73;2.80;;;;;;;;;;5053629;28;20599;-76
2022/09/09 05:01:09;;;;;;;5.80;2.60;;;;;;;;;;5034926;28;20224;-76
2022/09/09 05:03:48;;;;;;;4.47;2.73;;;;;;;;;;5048921;28;20195;-76
2022/09/09 05:06:18;;;;;;;6.80;2.30;;;;;;;;;;5052767;28;20195;-76
2022/09/09 05:09:01;;;;;;;4.70;2.70;;;;;;;;;;5040824;28;20276;-76
2022/09/09 05:11:32;;;;;;;5.17;2.43;;;;;;;;;;5054158;28;20239;-76
2022/09/09 05:14:14;;;;;;;2.73;2.50;;;;;;;;;;5053974;28;20207;-77
2022/09/09 05:16:55;;;;;;;6.53;2.70;;;;;;;;;;5044622;28;20206;-76
2022/09/09 05:19:31;;;;;;;3.57;2.30;;;;;;;;;;5054129;28;20217;-77
2022/09/09 05:22:05;;;;;;;3.73;2.43;;;;;;;;;;5049555;28;20256;-77
2022/09/09 05:24:36;;;;;;;5.80;2.47;;;;;;;;;;5054087;28;20201;-75
2022/09/09 05:27:17;;;;;;;6.70;2.57;;;;;;;;;;5052158;28;20207;-76
2022/09/09 05:29:57;;;;;;;3.33;2.33;;;;;;;;;;5052464;28;20192;-77
2022/09/09 05:32:34;;;;;;;6.07;2.87;;;;;;;;;;5048645;28;20690;-76
2022/09/09 05:35:15;;;;;;;4.43;2.10;;;;;;;;;;5040138;28;20237;-76
2022/09/09 05:37:45;;;;;;;2.90;2.37;;;;;;;;;;5054000;28;20191;-76
2022/09/09 05:40:29;;;;;;;5.67;2.40;;;;;;;;;;5053316;28;20688;-76
2022/09/09 05:43:03;;;;;;;5.70;2.40;;;;;;;;;;5054230;28;20199;-76
2022/09/09 05:45:45;;;;;;;5.63;2.40;;;;;;;;;;5053890;28;20734;-75
2022/09/09 05:48:30;;;;;;;5.83;2.37;;;;;;;;;;5049263;28;20245;-76
2022/09/09 05:51:12;;;;;;;5.23;2.53;;;;;;;;;;5046862;28;20225;-76
2022/09/09 05:53:41;;;;;;;4.87;2.30;;;;;;;;;;5051808;28;20341;-76
2022/09/09 05:56:24;;;;;;;4.53;2.30;;;;;;;;;;5052670;28;20210;-75
2022/09/09 05:59:01;;;;;;;3.53;2.10;;;;;;;;;;5042669;28;20675;-76
2022/09/09 06:01:40;;;;;;;4.90;2.17;;;;;;;;;;5046089;28;20230;-75
2022/09/09 06:04:21;;;;;;;6.83;2.50;;;;;;;;;;5051104;28;20964;-76
2022/09/09 06:07:00;;;;;;;3.13;1.97;;;;;;;;;;5047928;28;20203;-76
2022/09/09 06:09:40;;;;;;;2.97;2.13;;;;;;;;;;5047812;28;20208;-76
2022/09/09 06:12:21;;;;;;;3.43;2.40;;;;;;;;;;5033815;28;21237;-76
2022/09/09 06:14:59;;;;;;;5.33;2.20;;;;;;;;;;5051070;28;20198;-76
2022/09/09 06:17:38;;;;;;;2.97;2.23;;;;;;;;;;5050611;28;20741;-75
2022/09/09 06:20:13;;;;;;;5.13;2.70;;;;;;;;;;5047049;28;20211;-75
2022/09/09 06:22:52;;;;;;;3.93;2.30;;;;;;;;;;5038890;28;20676;-76
2022/09/09 06:25:22;;;;;;;3.57;2.10;;;;;;;;;;5051230;28;20244;-75
2022/09/09 06:27:54;;;;;;;4.30;2.40;;;;;;;;;;5042425;28;20718;-76
2022/09/09 06:30:31;;;;;;;3.90;2.10;;;;;;;;;;5042030;28;20245;-76
2022/09/09 06:33:10;;;;;;;3.90;2.60;;;;;;;;;;5052216;28;20202;-76
2022/09/09 06:35:53;;;;;;;3.47;2.23;;;;;;;;;;5052479;28;20210;-76
2022/09/09 06:38:33;;;;;;;3.23;2.37;;;;;;;;;;5056394;28;20231;-76
2022/09/09 06:41:13;;;;;;;3.40;2.23;;;;;;;;;;5055508;28;20268;-75
2022/09/09 06:43:55;;;;;;;3.07;2.40;;;;;;;;;;5047518;28;20282;-74
2022/09/09 06:46:32;;;;;;;5.40;2.40;;;;;;;;;;5055980;28;20219;-76
2022/09/09 06:49:10;;;;;;;4.00;2.27;;;;;;;;;;5055862;28;20201;-76
2022/09/09 06:51:51;;;;;;;5.63;2.47;;;;;;;;;;5055811;28;20215;-75
2022/09/09 06:54:28;;;;;;;6.63;2.30;;;;;;;;;;5056168;28;20226;-76
2022/09/09 06:57:09;;;;;;;5.37;2.83;;;;;;;;;;5033513;28;20325;-75
2022/09/09 07:00:05;;;;;;;3.93;2.60;;;;;;;;;;5055766;28;20223;-76
2022/09/09 07:02:46;;;;;;;3.67;2.13;;;;;;;;;;5055612;28;20202;-76
2022/09/09 07:05:16;;;;;;;5.40;2.43;;;;;;;;;;5042868;28;20261;-75
2022/09/09 07:07:45;;;;;;;3.80;2.77;;;;;;;;;;5034763;28;20234;-77
2022/09/09 07:10:21;;;;;;;3.47;2.50;;;;;;;;;;5035957;28;20223;-76
2022/09/09 07:13:02;;;;;;;4.88;2.40;;;;;;;;;;5049428;28;20246;-76
2022/09/09 07:15:34;;;;;;;3.92;2.50;;;;;;;;;;5055837;28;20672;-76
2022/09/09 07:18:14;;;;;;;4.65;2.40;;;;;;;;;;5063461;28;20659;-76
2022/09/09 07:20:56;;;;;;;5.82;2.00;;;;;;;;;;5044250;28;20227;-75
2022/09/09 07:23:28;;;;;;;3.97;2.05;;;;;;;;;;5054824;28;20676;-76
2022/09/09 07:26:14;;;;;;;5.03;2.03;;;;;;;;;;5054007;28;20206;-76
2022/09/09 07:28:54;;;;;;;3.42;1.98;;;;;;;;;;5054585;28;20195;-77
2022/09/09 07:31:30;;;;;;;2.70;1.60;;;;;;;;;;5055378;28;20227;-76
2022/09/09 07:34:00;;;;;;;5.30;2.17;;;;;;;;;;5055117;28;20205;-77
2022/09/09 07:36:39;;;;;;;3.78;2.20;;;;;;;;;;5055821;28;20659;-76
2022/09/09 07:39:10;;;;;;;3.25;2.03;;;;;;;;;;5056012;28;20203;-77
2022/09/09 07:41:51;;;;;;;3.47;2.15;;;;;;;;;;5055922;28;20241;-76
2022/09/09 07:44:32;;;;;;;4.22;2.00;;;;;;;;;;5055192;28;20203;-76
2022/09/09 07:47:18;;;;;;;3.83;2.03;;;;;;;;;;5055984;28;20206;-77
2022/09/09 07:49:58;;;;;;;5.53;2.00;;;;;;;;;;5054709;28;20266;-76
2022/09/09 07:52:28;;;;;;;5.70;1.90;;;;;;;;;;5056433;28;20230;-77
2022/09/09 07:55:07;;;;;;;3.35;1.95;;;;;;;;;;5055638;28;20218;-76
2022/09/09 07:57:40;;;;;;;4.65;1.75;;;;;;;;;;5055935;28;20242;-75
2022/09/09 08:00:21;;;;;;;3.85;2.42;;;;;;;;;;5055690;28;20274;-75
2022/09/09 08:02:55;;;;;;;4.28;2.17;;;;;;;;;;5055619;28;20610;-76
2022/09/09 08:05:35;;;;;;;4.10;1.90;;;;;;;;;;5055232;28;20203;-76
2022/09/09 08:08:06;;;;;;;3.83;1.80;;;;;;;;;;5055889;28;20650;-76
2022/09/09 08:10:37;;;;;;;3.63;1.80;;;;;;;;;;5055157;28;20227;-76
2022/09/09 08:13:18;;;;;;;8.02;1.98;;;;;;;;;;5048339;28;20216;-76
2022/09/09 08:15:57;;;;;;;3.58;1.98;;;;;;;;;;5034633;28;20189;-76
2022/09/09 08:18:34;;;;;;;2.97;1.70;;;;;;;;;;5040187;28;20659;-75
2022/09/09 08:21:08;;;;;;;1.95;1.75;;;;;;;;;;5054451;28;20223;-76
2022/09/09 08:23:49;;;;;;;4.75;2.00;;;;;;;;;;5055647;28;20213;-76
2022/09/09 08:26:27;;;;;;;6.20;2.25;;;;;;;;;;5054366;28;20286;-76
2022/09/09 08:29:01;;;;;;;5.15;2.03;;;;;;;;;;5055593;28;20190;-76
2022/09/09 08:31:35;;;;;;;4.03;1.80;;;;;;;;;;5055135;28;20238;-76
2022/09/09 08:34:09;;;;;;;3.58;1.70;;;;;;;;;;5042206;28;20684;-76
2022/09/09 08:36:44;;;;;;;5.60;1.63;;;;;;;;;;5035379;28;20215;-76
2022/09/09 08:39:24;;;;;;;4.03;1.98;;;;;;;;;;5036460;28;20230;-76
2022/09/09 08:42:22;;;;;;;4.18;2.00;;;;;;;;;;5047517;28;20678;-76
2022/09/09 08:44:56;;;;;;;5.82;1.88;;;;;;;;;;5053385;28;20722;-75
2022/09/09 08:47:34;;;;;;;3.92;1.70;;;;;;;;;;5054888;28;20210;-76
2022/09/09 08:50:24;;;;;;;2.78;1.58;;;;;;;;;;5054952;28;20253;-76
2022/09/09 08:53:07;;;;;;;3.65;1.63;;;;;;;;;;5034785;28;20199;-76
2022/09/09 08:55:39;;;;;;;3.58;1.73;;;;;;;;;;5034703;28;20226;-76
2022/09/09 08:58:20;;;;;;;4.82;1.73;;;;;;;;;;5035352;28;20188;-75
2022/09/09 09:01:06;;;;;;;5.63;1.92;;;;;;;;;;5034691;28;20704;-75
2022/09/09 09:03:44;;;;;;;2.78;1.77;;;;;;;;;;5053284;28;20671;-76
2022/09/09 09:06:26;;;;;;;5.28;1.65;;;;;;;;;;5054022;28;20756;-76
2022/09/09 09:09:08;;;;;;;5.45;2.10;;;;;;;;;;5054392;28;20268;-74
2022/09/09 09:11:43;;;;;;;5.40;1.80;;;;;;;;;;5054138;28;20644;-76
2022/09/09 09:14:23;;;;;;;3.40;1.80;;;;;;;;;;5054558;28;20657;-76
2022/09/09 09:17:05;;;;;;;3.55;1.60;;;;;;;;;;5053992;28;20299;-76
2022/09/09 09:19:46;;;;;;;3.25;1.60;;;;;;;;;;5054505;28;20188;-75
2022/09/09 09:22:32;;;;;;;3.92;1.95;;;;;;;;;;5034229;28;20234;-76
2022/09/09 09:25:06;;;;;;;5.78;1.58;;;;;;;;;;5034624;28;20223;-75
2022/09/09 09:27:41;;;;;;;4.57;1.60;;;;;;;;;;5034556;28;20192;-75
2022/09/09 09:30:16;;;;;;;4.07;1.90;;;;;;;;;;5040312;28;20638;-75
2022/09/09 09:33:01;;;;;;;5.30;1.75;;;;;;;;;;5054517;28;20600;-75
2022/09/09 09:35:31;;;;;;;4.82;1.73;;;;;;;;;;5045813;28;20207;-75
2022/09/09 09:38:18;;;;;;;4.65;1.63;;;;;;;;;;5046617;28;20210;-75
2022/09/09 09:41:13;;;;;;;3.65;1.60;;;;;;;;;;5053318;28;20218;-75
2022/09/09 09:43:56;;;;;;;7.28;2.00;;;;;;;;;;5053538;28;20222;-76
2022/09/09 09:46:39;;;;;;;4.97;1.80;;;;;;;;;;5053199;28;20248;-75
2022/09/09 09:49:13;;;;;;;4.75;1.60;;;;;;;;;;5053696;28;20199;-75
2022/09/09 09:51:48;;;;;;;4.10;1.83;;;;;;;;;;5034256;28;20215;-76
2022/09/09 09:54:30;;;;;;;4.80;1.75;;;;;;;;;;5033474;28;20183;-75
2022/09/09 09:57:17;;;;;;;5.63;1.80;;;;;;;;;;5033247;28;20200;-76
2022/09/09 09:59:50;;;;;;;4.93;1.92;;;;;;;;;;5042060;28;20199;-75
2022/09/09 10:02:29;;;;;;;3.42;1.70;;;;;;;;;;5053434;28;20285;-76
2022/09/09 10:05:06;;;;;;;5.25;2.05;;;;;;;;;;5053297;28;20230;-75
2022/09/09 10:07:46;;;;;;;4.80;1.92;;;;;;;;;;5053014;28;20218;-75
2022/09/09 10:10:32;;;;;;;3.40;1.88;;;;;;;;;;5053511;28;20207;-75
2022/09/09 10:13:07;;;;;;;3.60;1.70;;;;;;;;;;5051047;28;20206;-75
2022/09/09 10:15:43;;;;;;;5.75;2.00;;;;;;;;;;5053302;28;20267;-75
2022/09/09 10:18:21;;;;;;;4.35;1.88;;;;;;;;;;5053147;28;20210;-76
2022/09/09 10:20:56;;;;;;;3.53;1.83;;;;;;;;;;5051451;28;20214;-76
2022/09/09 10:23:33;;;;;;;4.30;1.90;;;;;;;;;;5053264;28;20210;-73
2022/09/09 10:26:24;;;;;;;6.25;1.90;;;;;;;;;;5052603;28;20274;-75
2022/09/09 10:29:11;;;;;;;8.02;2.40;;;;;;;;;;5052727;28;20233;-75
2022/09/09 10:31:52;;;;;;;4.13;2.35;;;;;;;;;;5052831;28;20215;-76
2022/09/09 10:34:50;;;;;;;6.90;2.30;;;;;;;;;;5052737;28;20664;-75
2022/09/09 10:37:41;;;;;;;8.52;2.60;;;;;;;;;;5052777;28;20605;-76
2022/09/09 10:40:30;;;;;;;7.78;2.80;;;;;;;;;;5053160;28;20194;-76
2022/09/09 10:43:11;;;;;;;4.88;2.20;;;;;;;;;;5052532;28;20214;-76
2022/09/09 10:46:00;;;;;;;5.35;2.58;;;;;;;;;;5052676;28;20203;-76
2022/09/09 10:48:47;;;;;;;6.03;2.30;;;;;;;;;;5052801;28;20198;-76
2022/09/09 10:51:28;;;;;;;2.20;0.98;;;;;;;;;;5034867;28;20277;-76
2022/09/09 10:54:12;;;;;;;1.63;0.90;;;;;;;;;;5033048;28;20203;-76
2022/09/09 10:56:44;;;;;;;2.58;0.80;;;;;;;;;;5032839;28;20587;-75
2022/09/09 10:59:15;;;;;;;2.83;1.08;;;;;;;;;;5032625;28;20290;-76
2022/09/09 11:01:46;;;;;;;4.38;1.17;;;;;;;;;;5031896;28;20281;-76
2022/09/09 11:04:17;;;;;;;4.05;1.20;;;;;;;;;;5035562;28;20221;-76
2022/09/09 11:06:52;;;;;;;2.65;1.30;;;;;;;;;;5053052;28;20206;-76
2022/09/09 11:09:23;;;;;;;2.42;1.08;;;;;;;;;;5052569;28;20265;-76
2022/09/09 11:11:54;;;;;;;2.83;1.00;;;;;;;;;;5052071;28;20247;-76
2022/09/09 11:14:28;;;;;;;3.45;1.50;;;;;;;;;;5032855;28;20184;-77
2022/09/09 11:17:03;;;;;;;3.40;1.30;;;;;;;;;;5041641;28;20199;-76
2022/09/09 11:19:34;;;;;;;4.78;1.48;;;;;;;;;;5052765;28;20301;-76
2022/09/09 11:22:04;;;;;;;6.10;3.47;;;;;;;;;;5052644;28;20310;-76
2022/09/09 11:24:37;;;;;;;2.72;1.20;;;;;;;;;;5055078;28;20714;-75
2022/09/09 11:27:09;;;;;;;2.53;1.23;;;;;;;;;;5055786;28;20237;-76
2022/09/09 11:29:52;;;;;;;3.50;1.60;;;;;;;;;;5036539;28;20650;-76
2022/09/09 11:32:28;;;;;;;2.83;1.23;;;;;;;;;;5055881;28;20232;-75
2022/09/09 11:34:59;;;;;;;4.57;1.20;;;;;;;;;;5056483;28;20266;-75
2022/09/09 11:37:45;;;;;;;3.70;1.48;;;;;;;;;;5056104;28;20694;-76
2022/09/09 11:40:20;;;;;;;4.90;1.42;;;;;;;;;;5037117;28;20239;-76
2022/09/09 11:42:49;;;;;;;3.67;1.50;;;;;;;;;;5051876;28;20613;-76
2022/09/09 11:45:25;;;;;;;2.85;1.10;;;;;;;;;;5055415;28;20253;-75
2022/09/09 11:47:54;;;;;;;3.88;1.10;;;;;;;;;;5055753;28;20248;-76
2022/09/09 11:50:31;;;;;;;3.05;1.35;;;;;;;;;;5055340;28;20294;-76
2022/09/09 11:53:23;;;;;;;3.70;1.27;;;;;;;;;;5051736;28;20564;-76
2022/09/09 11:56:08;;;;;;;4.30;1.15;;;;;;;;;;5045892;28;20678;-76
2022/09/09 11:58:42;;;;;;;2.70;1.00;;;;;;;;;;5051559;28;20252;-76
2022/09/09 12:01:28;;;;;;;1.65;1.13;;;;;;;;;;5055562;28;20288;-76
2022/09/09 12:04:03;;;;;;;3.00;1.20;;;;;;;;;;5055176;28;20223;-76
2022/09/09 12:06:33;;;;;;;4.00;1.45;;;;;;;;;;5054489;28;20214;-76
2022/09/09 12:09:08;;;;;;;5.68;1.30;;;;;;;;;;5055037;28;20286;-76
2022/09/09 12:11:37;;;;;;;2.72;1.08;;;;;;;;;;5055005;28;20306;-76
2022/09/09 12:14:05;;;;;;;5.80;1.60;;;;;;;;;;5054548;28;20238;-76
2022/09/09 12:16:37;;;;;;;2.67;1.10;;;;;;;;;;5054872;28;20245;-76
2022/09/09 12:19:07;;;;;;;4.45;1.40;;;;;;;;;;5054574;28;20198;-76
2022/09/09 12:21:38;;;;;;;5.93;1.35;;;;;;;;;;5054929;28;20266;-76
2022/09/09 12:24:10;;;;;;;2.53;1.08;;;;;;;;;;5055157;28;20294;-76
2022/09/09 12:26:40;;;;;;;2.60;1.40;;;;;;;;;;5055691;28;20231;-75
2022/09/09 12:29:15;;;;;;;2.95;1.25;;;;;;;;;;5052177;28;20229;-76
2022/09/09 12:31:50;;;;;;;2.67;1.20;;;;;;;;;;5052228;28;20223;-76
2022/09/09 12:34:25;;;;;;;3.75;1.10;;;;;;;;;;5061054;28;20235;-75
2022/09/09 12:36:56;;;;;;;4.43;1.70;;;;;;;;;;5052692;28;20282;-76
2022/09/09 12:39:29;;;;;;;3.88;1.38;;;;;;;;;;5044519;28;20724;-76
2022/09/09 12:41:58;;;;;;;3.25;1.20;;;;;;;;;;5052429;28;20227;-76
2022/09/09 12:44:28;;;;;;;3.22;1.30;;;;;;;;;;5051683;28;20598;-76
2022/09/09 12:47:00;;;;;;;4.43;1.40;;;;;;;;;;5052216;28;20286;-76
2022/09/09 12:49:33;;;;;;;4.10;1.38;;;;;;;;;;5049296;28;20253;-74
2022/09/09 12:52:05;;;;;;;3.80;1.40;;;;;;;;;;5051532;28;20268;-76
2022/09/09 12:54:35;;;;;;;2.85;1.25;;;;;;;;;;5050512;28;20196;-75
2022/09/09 12:57:04;;;;;;;2.95;1.08;;;;;;;;;;5044022;28;20203;-75
2022/09/09 12:59:37;;;;;;;2.85;1.25;;;;;;;;;;5051365;28;20235;-75
2022/09/09 13:02:18;;;;;;;3.60;1.20;;;;;;;;;;5051436;28;20257;-76
2022/09/09 13:04:47;;;;;;;2.78;1.10;;;;;;;;;;5047685;28;20688;-74
2022/09/09 13:07:16;;;;;;;2.92;1.02;;;;;;;;;;5052235;28;20207;-75
2022/09/09 13:09:45;;;;;;;2.65;1.35;;;;;;;;;;5045269;28;20237;-76
2022/09/09 13:12:16;;;;;;;3.20;1.10;;;;;;;;;;5051910;28;20277;-75
2022/09/09 13:14:46;;;;;;;2.83;1.30;;;;;;;;;;5047967;28;20201;-75
2022/09/09 13:17:22;;;;;;;2.03;1.10;;;;;;;;;;5051015;28;20565;-74
2022/09/09 13:19:52;;;;;;;1.80;0.95;;;;;;;;;;5049493;28;20195;-74
2022/09/09 13:22:23;;;;;;;2.85;1.10;;;;;;;;;;5051837;28;20591;-75
2022/09/09 13:25:02;;;;;;;2.83;1.17;;;;;;;;;;5051157;28;20306;-71
2022/09/09 13:27:32;;;;;;;3.45;1.35;;;;;;;;;;5051920;28;20626;-75
2022/09/09 13:30:00;;;;;;;2.53;1.10;;;;;;;;;;5050136;28;20286;-76
2022/09/09 13:32:31;;;;;;;2.90;1.20;;;;;;;;;;5034629;28;20264;-75
2022/09/09 13:35:01;;;;;;;4.10;1.20;;;;;;;;;;5048494;28;20215;-75
2022/09/09 13:37:33;;;;;;;1.65;0.98;;;;;;;;;;5048161;28;20261;-75
2022/09/09 13:40:02;;;;;;;3.70;1.10;;;;;;;;;;5051789;28;20286;-75
2022/09/09 13:42:32;;;;;;;2.80;1.10;;;;;;;;;;5052758;28;20292;-76
2022/09/09 13:45:01;;;;;;;2.92;1.10;;;;;;;;;;5053370;28;20743;-74
2022/09/09 13:47:33;;;;;;;1.98;0.95;;;;;;;;;;5050012;28;20287;-76
2022/09/09 13:50:11;;;;;;;3.08;1.02;;;;;;;;;;5037781;28;20227;-76
2022/09/09 13:52:40;;;;;;;4.00;1.20;;;;;;;;;;5051748;28;20223;-75
2022/09/09 13:55:11;;;;;;;2.78;1.08;;;;;;;;;;5051615;28;20199;-76
2022/09/09 13:57:39;;;;;;;2.00;1.10;;;;;;;;;;5051025;28;20265;-75
2022/09/09 14:00:12;;;;;;;2.53;1.10;;;;;;;;;;5051964;28;20200;-77
2022/09/09 14:02:43;;;;;;;2.05;0.95;;;;;;;;;;5050091;28;20715;-75
2022/09/09 14:05:12;;;;;;;2.35;1.10;;;;;;;;;;5051280;28;20219;-76
2022/09/09 14:07:41;;;;;;;2.83;1.10;;;;;;;;;;5055233;28;20249;-76
2022/09/09 14:10:10;;;;;;;4.05;1.17;;;;;;;;;;5055804;28;20206;-76
2022/09/09 14:12:39;;;;;;;6.40;1.15;;;;;;;;;;5051266;28;20728;-75
2022/09/09 14:15:09;;;;;;;3.67;1.20;;;;;;;;;;5051124;28;20245;-75
2022/09/09 14:17:38;;;;;;;3.15;1.25;;;;;;;;;;5051063;28;20226;-75
2022/09/09 14:20:11;;;;;;;3.55;1.15;;;;;;;;;;5052749;28;20671;-76
2022/09/09 14:22:40;;;;;;;2.95;1.30;;;;;;;;;;5053095;28;20652;-76
2022/09/09 14:25:09;;;;;;;3.85;1.20;;;;;;;;;;5048831;28;20673;-76
2022/09/09 14:27:39;;;;;;;2.00;1.10;;;;;;;;;;5051951;28;20538;-76
2022/09/09 14:30:08;;;;;;;2.80;1.10;;;;;;;;;;5045623;28;20199;-76
2022/09/09 14:32:37;;;;;;;1.52;0.90;;;;;;;;;;5052394;28;20211;-76
2022/09/09 14:35:05;;;;;;;2.53;1.10;;;;;;;;;;5051692;28;20223;-76
2022/09/09 14:37:35;;;;;;;2.85;1.30;;;;;;;;;;5052029;28;20547;-76
2022/09/09 14:40:04;;;;;;;3.15;1.30;;;;;;;;;;5050713;28;20210;-77
2022/09/09 14:42:32;;;;;;;1.50;0.90;;;;;;;;;;5051651;28;20219;-76
2022/09/09 14:45:01;;;;;;;2.20;1.08;;;;;;;;;;5041787;28;20218;-76
2022/09/09 14:47:30;;;;;;;2.95;1.10;;;;;;;;;;5049195;28;20687;-76
2022/09/09 14:49:58;;;;;;;3.50;1.10;;;;;;;;;;5054102;28;20705;-77
2022/09/09 14:52:26;;;;;;;5.53;1.20;;;;;;;;;;5053746;28;20223;-76
2022/09/09 14:54:56;;;;;;;1.58;0.90;;;;;;;;;;5054412;28;20294;-76
2022/09/09 14:57:25;;;;;;;2.42;1.08;;;;;;;;;;5044336;28;20355;-76
2022/09/09 14:59:53;;;;;;;3.05;1.05;;;;;;;;;;5051502;28;20207;-77
2022/09/09 15:02:22;;;;;;;1.77;1.00;;;;;;;;;;5052390;28;20250;-76
2022/09/09 15:04:52;;;;;;;5.55;1.45;;;;;;;;;;5055178;28;20261;-76
2022/09/09 15:07:22;;;;;;;3.17;1.10;;;;;;;;;;5054378;28;20604;-76
2022/09/09 15:09:50;;;;;;;2.10;1.20;;;;;;;;;;5053563;28;20246;-76
2022/09/09 15:12:20;;;;;;;2.63;1.17;;;;;;;;;;5047939;28;20669;-76
2022/09/09 15:14:50;;;;;;;2.55;1.20;;;;;;;;;;5055988;28;20241;-75
2022/09/09 15:17:18;;;;;;;3.65;1.13;;;;;;;;;;5054799;28;20211;-76
2022/09/09 15:19:47;;;;;;;2.40;1.10;;;;;;;;;;5056047;28;20226;-76
2022/09/09 15:22:15;;;;;;;2.10;1.10;;;;;;;;;;5069236;28;20304;-76
2022/09/09 15:24:43;;;;;;;2.55;1.08;;;;;;;;;;5037659;28;20239;-76
2022/09/09 15:27:14;;;;;;;3.35;1.10;;;;;;;;;;5052959;28;20231;-76
2022/09/09 15:29:44;;;;;;;5.10;1.30;;;;;;;;;;5058149;28;22008;-76
2022/09/09 15:32:13;;;;;;;1.73;1.00;;;;;;;;;;5058717;28;20345;-76
2022/09/09 15:34:41;;;;;;;2.30;1.00;;;;;;;;;;5056073;28;20246;-76
2022/09/09 15:37:12;;;;;;;3.55;1.10;;;;;;;;;;5055884;28;20391;-76